createdAt,value
2022-12-01T00:01:33.780Z,5.26
2022-12-01T00:04:02.144Z,5.28
2022-12-01T00:06:31.381Z,5.24
2022-12-01T00:09:19.933Z,5.25
2022-12-01T00:11:48.293Z,5.25
2022-12-01T00:14:16.762Z,5.29
2022-12-01T00:16:44.908Z,5.23
2022-12-01T00:19:12.876Z,5.36
2022-12-01T00:21:42.134Z,5.37
2022-12-01T00:24:10.678Z,5.38
2022-12-01T00:26:38.554Z,5.36
2022-12-01T00:29:06.416Z,5.32
2022-12-01T00:31:35.232Z,5.32
2022-12-01T00:34:06.893Z,5.26
2022-12-01T00:36:38.856Z,5.22
2022-12-01T00:39:08.255Z,5.34
2022-12-01T00:41:36.169Z,5.32
2022-12-01T00:44:04.740Z,5.32
2022-12-01T00:46:32.748Z,5.28
2022-12-01T00:49:00.784Z,5.37
2022-12-01T00:51:28.621Z,5.22
2022-12-01T00:53:56.537Z,5.19
2022-12-01T00:56:25.738Z,5.21
2022-12-01T01:04:03.053Z,5.29
2022-12-01T01:07:05.903Z,5.17
2022-12-01T01:09:34.124Z,5.21
2022-12-01T01:12:03.370Z,5.16
2022-12-01T01:14:31.328Z,5.19
2022-12-01T01:16:59.218Z,5.28
2022-12-01T01:19:27.111Z,5.27
2022-12-01T01:21:55.242Z,5.19
2022-12-01T01:24:23.099Z,5.13
2022-12-01T01:26:51.059Z,5.11
2022-12-01T01:29:20.502Z,5.14
2022-12-01T01:31:48.307Z,5.25
2022-12-01T01:34:16.412Z,5.26
2022-12-01T01:36:46.301Z,5.20
2022-12-01T01:39:14.223Z,5.29
2022-12-01T01:41:42.079Z,5.20
2022-12-01T01:44:42.987Z,5.17
2022-12-01T01:47:12.966Z,5.24
2022-12-01T01:49:42.153Z,5.26
2022-12-01T01:52:10.767Z,5.23
2022-12-01T01:54:40.431Z,5.18
2022-12-01T01:57:10.230Z,5.19
2022-12-01T01:59:39.863Z,5.33
2022-12-01T02:02:08.996Z,5.25
2022-12-01T02:04:40.236Z,5.18
2022-12-01T02:07:08.550Z,5.05
2022-12-01T02:09:36.672Z,5.02
2022-12-01T02:12:13.494Z,5.01
2022-12-01T02:14:49.336Z,5.07
2022-12-01T02:17:23.502Z,5.14
2022-12-01T02:20:07.205Z,5.19
2022-12-01T02:22:41.476Z,5.12
2022-12-01T02:25:19.696Z,5.12
2022-12-01T02:27:58.008Z,5.11
2022-12-01T02:30:32.261Z,5.17
2022-12-01T02:33:05.429Z,5.24
2022-12-01T02:35:35.687Z,5.19
2022-12-01T02:38:09.018Z,5.21
2022-12-01T02:40:41.488Z,5.18
2022-12-01T02:43:13.977Z,5.19
2022-12-01T02:45:47.013Z,5.18
2022-12-01T02:48:17.507Z,5.26
2022-12-01T02:50:46.968Z,5.25
2022-12-01T02:53:16.852Z,5.23
2022-12-01T02:55:48.859Z,5.23
2022-12-01T02:58:16.914Z,5.18
2022-12-01T03:00:52.313Z,5.23
2022-12-01T03:03:32.889Z,5.24
2022-12-01T03:06:09.400Z,5.28
2022-12-01T03:08:46.010Z,5.27
2022-12-01T03:11:26.997Z,5.19
2022-12-01T03:14:00.068Z,5.17
2022-12-01T03:16:34.563Z,5.23
2022-12-01T03:19:08.495Z,5.21
2022-12-01T03:21:40.529Z,5.22
2022-12-01T03:24:11.517Z,5.26
2022-12-01T03:26:43.682Z,5.32
2022-12-01T03:29:14.763Z,5.34
2022-12-01T03:31:46.742Z,5.31
2022-12-01T03:34:17.965Z,5.31
2022-12-01T03:36:48.574Z,5.38
2022-12-01T03:39:18.452Z,5.31
2022-12-01T03:41:49.520Z,5.23
2022-12-01T03:44:21.718Z,5.19
2022-12-01T03:46:54.291Z,5.26
2022-12-01T03:49:23.787Z,5.35
2022-12-01T03:52:03.209Z,5.29
2022-12-01T03:54:37.318Z,5.32
2022-12-01T03:57:09.096Z,5.32
2022-12-01T03:59:38.710Z,5.30
2022-12-01T04:02:08.563Z,5.39
2022-12-01T04:04:37.171Z,5.34
2022-12-01T04:07:05.472Z,5.31
2022-12-01T04:09:33.355Z,5.38
2022-12-01T04:12:19.214Z,5.31
2022-12-01T04:14:47.487Z,5.39
2022-12-01T04:17:16.705Z,5.34
2022-12-01T04:19:44.639Z,5.34
2022-12-01T04:22:12.481Z,5.33
2022-12-01T04:24:40.374Z,5.36
2022-12-01T04:27:08.322Z,5.25
2022-12-01T04:29:38.567Z,5.23
2022-12-01T04:32:06.660Z,5.26
2022-12-01T04:34:35.972Z,5.36
2022-12-01T04:37:04.575Z,5.31
2022-12-01T04:39:32.657Z,5.35
2022-12-01T04:42:00.547Z,5.38
2022-12-01T04:44:34.335Z,5.37
2022-12-01T04:47:03.312Z,5.32
2022-12-01T04:49:31.264Z,5.33
2022-12-01T04:52:00.716Z,5.31
2022-12-01T04:54:28.732Z,5.28
2022-12-01T04:56:56.656Z,5.31
2022-12-01T04:59:24.749Z,5.27
2022-12-01T05:01:52.747Z,5.29
2022-12-01T05:04:20.706Z,5.27
2022-12-01T05:06:48.630Z,5.34
2022-12-01T05:09:19.881Z,5.32
2022-12-01T05:11:48.071Z,5.22
2022-12-01T05:14:15.984Z,5.21
2022-12-01T05:16:43.982Z,5.14
2022-12-01T05:19:30.207Z,5.22
2022-12-01T05:21:58.210Z,5.21
2022-12-01T05:24:27.471Z,5.25
2022-12-01T05:26:55.330Z,5.26
2022-12-01T05:29:23.262Z,5.26
2022-12-01T05:31:51.205Z,5.22
2022-12-01T05:34:19.235Z,5.25
2022-12-01T05:36:47.081Z,5.17
2022-12-01T05:39:18.270Z,5.24
2022-12-01T05:41:48.099Z,5.17
2022-12-01T05:44:16.131Z,5.16
2022-12-01T05:46:44.136Z,5.20
2022-12-01T05:49:12.064Z,5.18
2022-12-01T05:51:40.063Z,5.08
2022-12-01T05:54:23.375Z,5.22
2022-12-01T05:56:52.793Z,5.14
2022-12-01T05:59:20.690Z,5.13
2022-12-01T06:01:48.787Z,5.13
2022-12-01T06:04:16.801Z,5.08
2022-12-01T06:06:46.191Z,5.22
2022-12-01T06:09:14.404Z,5.18
2022-12-01T06:11:42.404Z,5.15
2022-12-01T06:14:11.834Z,5.06
2022-12-01T06:16:39.870Z,5.12
2022-12-01T06:19:07.764Z,5.10
2022-12-01T06:21:36.057Z,5.05
2022-12-01T06:24:04.032Z,5.11
2022-12-01T06:26:37.627Z,5.18
2022-12-01T06:29:05.686Z,5.08
2022-12-01T06:31:34.934Z,5.14
2022-12-01T06:34:02.793Z,5.13
2022-12-01T06:36:30.661Z,5.12
2022-12-01T06:39:00.164Z,5.11
2022-12-01T06:41:28.235Z,5.13
2022-12-01T06:43:56.097Z,5.13
2022-12-01T06:46:24.070Z,5.01
2022-12-01T06:48:53.366Z,5.02
2022-12-01T06:51:21.358Z,5.16
2022-12-01T06:53:49.440Z,5.20
2022-12-01T06:56:17.679Z,5.18
2022-12-01T06:58:45.801Z,5.16
2022-12-01T07:01:14.153Z,5.25
2022-12-01T07:03:42.839Z,5.20
2022-12-01T07:06:13.256Z,5.10
2022-12-01T07:08:41.232Z,5.06
2022-12-01T07:11:09.987Z,5.07
2022-12-01T07:13:39.209Z,5.04
2022-12-01T07:16:07.492Z,5.15
2022-12-01T07:18:36.877Z,5.19
2022-12-01T07:21:05.811Z,5.28
2022-12-01T07:23:35.581Z,5.30
2022-12-01T07:29:20.317Z,5.19
2022-12-01T07:31:48.436Z,5.24
2022-12-01T07:34:23.469Z,5.30
2022-12-01T07:37:00.382Z,5.27
2022-12-01T07:39:41.383Z,5.23
2022-12-01T07:45:38.455Z,5.17
2022-12-01T07:52:40.754Z,5.21
2022-12-01T07:56:04.310Z,5.22
2022-12-01T07:59:16.989Z,5.31
2022-12-01T08:02:23.195Z,5.06
2022-12-01T08:09:11.631Z,5.32
2022-12-01T08:11:48.999Z,5.25
2022-12-01T08:14:26.508Z,5.29
2022-12-01T08:24:19.491Z,5.16
2022-12-01T08:37:57.869Z,5.05
2022-12-01T08:40:27.682Z,5.23
2022-12-01T08:43:00.404Z,5.24
2022-12-01T08:45:29.643Z,5.14
2022-12-01T08:47:58.903Z,5.13
2022-12-01T08:53:18.712Z,5.09
2022-12-01T08:55:46.763Z,5.10
2022-12-01T08:58:14.493Z,5.04
2022-12-01T09:00:43.738Z,5.00
2022-12-01T09:03:11.532Z,5.11
2022-12-01T09:05:39.339Z,5.19
2022-12-01T09:08:33.055Z,5.17
2022-12-01T09:11:01.494Z,5.12
2022-12-01T09:13:29.672Z,5.11
2022-12-01T09:15:59.942Z,5.14
2022-12-01T09:18:28.164Z,5.15
2022-12-01T09:20:56.501Z,5.28
2022-12-01T09:23:25.115Z,5.22
2022-12-01T09:25:53.723Z,5.20
2022-12-01T09:28:21.515Z,5.23
2022-12-01T09:30:49.367Z,5.27
2022-12-01T09:33:18.547Z,5.26
2022-12-01T09:35:46.815Z,5.15
2022-12-01T09:38:14.620Z,5.19
2022-12-01T09:40:43.607Z,5.25
2022-12-01T09:43:17.325Z,5.06
2022-12-01T09:45:48.315Z,4.91
2022-12-01T09:48:22.521Z,4.90
2022-12-01T09:50:50.482Z,4.97
2022-12-01T09:53:20.631Z,4.95
2022-12-01T09:55:49.711Z,4.95
2022-12-01T09:58:20.945Z,5.07
2022-12-01T10:00:50.117Z,5.08
2022-12-01T10:03:23.742Z,5.19
2022-12-01T10:06:26.161Z,5.36
2022-12-01T10:08:48.712Z,5.55
2022-12-01T10:11:29.282Z,5.46
2022-12-01T10:13:57.246Z,5.51
2022-12-01T10:16:27.818Z,5.72
2022-12-01T10:18:59.838Z,5.92
2022-12-01T10:21:35.736Z,6.14
2022-12-01T10:24:09.641Z,6.13
2022-12-01T10:26:43.134Z,6.10
2022-12-01T10:29:14.725Z,6.14
2022-12-01T10:31:49.567Z,6.10
2022-12-01T10:34:22.674Z,5.98
2022-12-01T10:36:50.755Z,6.05
2022-12-01T10:39:20.755Z,6.09
2022-12-01T10:41:49.036Z,6.29
2022-12-01T10:44:19.468Z,6.11
2022-12-01T10:46:50.085Z,5.99
2022-12-01T10:49:20.070Z,5.67
2022-12-01T10:51:54.373Z,5.70
2022-12-01T10:54:23.249Z,5.72
2022-12-01T10:56:55.644Z,5.85
2022-12-01T10:59:25.916Z,5.87
2022-12-01T11:01:54.183Z,5.86
2022-12-01T11:04:29.764Z,5.83
2022-12-01T11:06:58.158Z,5.94
2022-12-01T11:09:28.064Z,6.05
2022-12-01T11:11:57.064Z,6.16
2022-12-01T11:14:25.981Z,6.21
2022-12-01T11:16:54.403Z,6.14
2022-12-01T11:19:29.621Z,6.25
2022-12-01T11:21:58.553Z,6.21
2022-12-01T11:24:29.861Z,6.29
2022-12-01T11:26:58.453Z,6.22
2022-12-01T11:29:32.644Z,6.11
2022-12-01T11:32:01.963Z,6.08
2022-12-01T11:34:35.994Z,6.16
2022-12-01T11:37:05.333Z,6.17
2022-12-01T11:39:35.031Z,6.21
2022-12-01T11:42:04.140Z,6.18
2022-12-01T11:44:50.796Z,6.30
2022-12-01T11:47:24.555Z,6.61
2022-12-01T11:49:56.567Z,6.65
2022-12-01T11:52:29.847Z,6.64
2022-12-01T11:55:08.454Z,6.55
2022-12-01T11:57:39.320Z,6.53
2022-12-01T12:00:13.313Z,6.52
2022-12-01T12:02:43.829Z,6.55
2022-12-01T12:05:30.286Z,6.51
2022-12-01T12:08:04.942Z,6.51
2022-12-01T12:10:41.023Z,6.39
2022-12-01T12:13:20.075Z,6.28
2022-12-01T12:15:56.129Z,6.21
2022-12-01T12:18:33.782Z,6.19
2022-12-01T12:21:06.645Z,6.27
2022-12-01T12:23:53.213Z,6.27
2022-12-01T12:26:23.807Z,6.34
2022-12-01T12:28:56.001Z,6.53
2022-12-01T12:31:29.038Z,6.64
2022-12-01T12:34:15.200Z,6.76
2022-12-01T12:36:44.977Z,6.74
2022-12-01T12:39:24.302Z,6.65
2022-12-01T12:41:54.029Z,6.61
2022-12-01T12:44:37.476Z,6.63
2022-12-01T12:47:12.441Z,6.56
2022-12-01T12:49:44.926Z,6.69
2022-12-01T12:52:14.709Z,6.69
2022-12-01T12:54:46.251Z,6.41
2022-12-01T12:57:19.711Z,6.22
2022-12-01T12:59:51.439Z,6.10
2022-12-01T13:02:21.970Z,6.01
2022-12-01T13:04:53.051Z,6.04
2022-12-01T13:07:27.703Z,6.02
2022-12-01T13:10:00.944Z,6.13
2022-12-01T13:12:30.552Z,5.98
2022-12-01T13:15:01.656Z,6.00
2022-12-01T13:17:34.264Z,6.06
2022-12-01T13:20:02.169Z,6.15
2022-12-01T13:22:31.586Z,6.28
2022-12-01T13:25:12.478Z,6.43
2022-12-01T13:27:43.255Z,6.41
2022-12-01T13:30:19.202Z,6.42
2022-12-01T13:32:49.993Z,6.46
2022-12-01T13:35:27.354Z,6.37
2022-12-01T13:37:58.347Z,6.28
2022-12-01T13:40:30.318Z,6.32
2022-12-01T13:43:05.503Z,6.25
2022-12-01T13:45:37.558Z,6.12
2022-12-01T13:48:06.250Z,6.16
2022-12-01T13:51:07.157Z,6.02
2022-12-01T13:53:35.994Z,6.14
2022-12-01T13:56:24.414Z,6.19
2022-12-01T13:58:53.332Z,6.25
2022-12-01T14:01:40.168Z,6.20
2022-12-01T14:04:38.237Z,6.23
2022-12-01T14:07:30.358Z,6.22
2022-12-01T14:10:00.192Z,6.18
2022-12-01T14:12:34.435Z,6.17
2022-12-01T14:15:03.875Z,6.07
2022-12-01T14:17:32.770Z,5.99
2022-12-01T14:20:18.776Z,5.97
2022-12-01T14:22:47.736Z,5.99
2022-12-01T14:25:26.829Z,5.88
2022-12-01T14:27:57.552Z,5.83
2022-12-01T14:30:45.609Z,5.75
2022-12-01T14:33:32.037Z,5.81
2022-12-01T14:35:59.948Z,5.78
2022-12-01T14:38:28.892Z,5.75
2022-12-01T14:40:57.228Z,5.70
2022-12-01T14:43:45.022Z,5.73
2022-12-01T14:46:15.460Z,5.71
2022-12-01T14:48:45.382Z,5.71
2022-12-01T14:51:17.810Z,5.61
2022-12-01T14:53:47.556Z,5.57
2022-12-01T14:56:17.237Z,5.64
2022-12-01T14:58:53.331Z,5.52
2022-12-01T15:01:22.289Z,5.55
2022-12-01T15:03:52.917Z,5.40
2022-12-01T15:06:21.712Z,5.41
2022-12-01T15:09:32.172Z,5.49
2022-12-01T15:11:54.826Z,5.38
2022-12-01T15:14:25.776Z,5.25
2022-12-01T15:16:53.565Z,5.13
2022-12-01T15:19:25.572Z,5.24
2022-12-01T15:21:53.528Z,5.24
2022-12-01T15:24:22.537Z,5.19
2022-12-01T15:26:51.628Z,5.10
2022-12-01T15:29:22.150Z,5.11
2022-12-01T15:31:52.012Z,5.12
2022-12-01T15:34:21.471Z,5.04
2022-12-01T15:36:49.323Z,4.96
2022-12-01T15:39:17.996Z,4.98
2022-12-01T15:41:47.344Z,4.96
2022-12-01T15:44:20.564Z,4.86
2022-12-01T15:46:48.613Z,4.86
2022-12-01T15:49:19.673Z,4.95
2022-12-01T15:51:48.811Z,4.93
2022-12-01T15:54:19.549Z,4.87
2022-12-01T15:56:51.419Z,4.81
2022-12-01T15:59:25.112Z,4.81
2022-12-01T16:01:53.146Z,4.78
2022-12-01T16:04:23.858Z,4.74
2022-12-01T16:06:57.697Z,4.84
2022-12-01T16:09:29.603Z,4.79
2022-12-01T16:12:05.474Z,4.72
2022-12-01T16:14:34.319Z,4.67
2022-12-01T16:17:02.630Z,4.67
2022-12-01T16:19:32.364Z,4.63
2022-12-01T16:22:02.788Z,4.55
2022-12-01T16:24:32.076Z,4.58
2022-12-01T16:27:01.037Z,4.58
2022-12-01T16:29:30.654Z,4.45
2022-12-01T16:34:50.641Z,4.35
2022-12-01T16:37:18.494Z,4.24
2022-12-01T16:39:46.584Z,4.23
2022-12-01T16:42:15.884Z,4.34
2022-12-01T16:44:44.614Z,4.28
2022-12-01T16:47:17.283Z,4.28
2022-12-01T16:49:47.268Z,4.23
2022-12-01T16:55:07.714Z,4.14
2022-12-01T16:57:37.423Z,4.27
2022-12-01T17:00:06.716Z,4.35
2022-12-01T17:02:42.575Z,4.42
2022-12-01T17:05:11.326Z,4.44
2022-12-01T17:07:40.570Z,4.38
2022-12-01T17:10:08.954Z,4.32
2022-12-01T17:12:36.742Z,4.29
2022-12-01T17:15:04.854Z,4.32
2022-12-01T17:17:32.987Z,4.25
2022-12-01T17:20:00.772Z,4.17
2022-12-01T17:22:28.611Z,4.05
2022-12-01T17:25:02.280Z,4.10
2022-12-01T17:27:31.430Z,4.12
2022-12-01T17:30:09.956Z,4.21
2022-12-01T17:32:37.711Z,4.00
2022-12-01T17:35:06.023Z,4.06
2022-12-01T17:37:33.818Z,3.95
2022-12-01T17:40:02.921Z,3.88
2022-12-01T17:42:31.405Z,3.94
2022-12-01T17:44:59.262Z,3.94
2022-12-01T17:47:28.401Z,3.84
2022-12-01T17:49:56.637Z,3.84
2022-12-01T17:52:28.410Z,4.01
2022-12-01T17:54:56.857Z,3.92
2022-12-01T17:57:26.327Z,3.84
2022-12-01T17:59:54.081Z,3.92
2022-12-01T18:02:21.965Z,3.85
2022-12-01T18:04:50.163Z,3.94
2022-12-01T18:07:18.388Z,3.95
2022-12-01T18:09:46.475Z,3.99
2022-12-01T18:12:14.265Z,3.93
2022-12-01T18:14:43.375Z,3.99
2022-12-01T18:17:11.293Z,3.92
2022-12-01T18:19:40.357Z,4.02
2022-12-01T18:22:08.339Z,3.91
2022-12-01T18:24:41.630Z,3.82
2022-12-01T18:27:12.892Z,3.76
2022-12-01T18:29:42.906Z,3.72
2022-12-01T18:32:11.077Z,3.85
2022-12-01T18:34:40.916Z,3.99
2022-12-01T18:37:08.937Z,3.95
2022-12-01T18:39:36.735Z,3.86
2022-12-01T18:42:04.740Z,3.91
2022-12-01T18:44:32.640Z,3.82
2022-12-01T18:47:02.534Z,3.72
2022-12-01T18:49:30.625Z,3.81
2022-12-01T18:51:59.701Z,3.82
2022-12-01T18:54:27.505Z,3.76
2022-12-01T18:56:58.696Z,3.71
2022-12-01T18:59:26.830Z,3.78
2022-12-01T19:01:54.589Z,3.91
2022-12-01T19:04:23.726Z,3.81
2022-12-01T19:06:51.579Z,3.83
2022-12-01T19:09:24.351Z,3.75
2022-12-01T19:11:59.603Z,3.80
2022-12-01T19:14:28.842Z,3.83
2022-12-01T19:16:56.862Z,3.80
2022-12-01T19:19:26.367Z,3.73
2022-12-01T19:21:56.317Z,3.68
2022-12-01T19:24:24.127Z,3.60
2022-12-01T19:26:52.176Z,3.75
2022-12-01T19:29:20.049Z,3.70
2022-12-01T19:31:47.862Z,3.68
2022-12-01T19:34:15.733Z,3.62
2022-12-01T19:36:44.873Z,3.62
2022-12-01T19:39:12.897Z,3.57
2022-12-01T19:41:40.723Z,3.47
2022-12-01T19:44:08.869Z,3.57
2022-12-01T19:46:36.689Z,3.55
2022-12-01T19:49:05.585Z,3.43
2022-12-01T19:51:34.861Z,3.38
2022-12-01T19:54:04.544Z,3.45
2022-12-01T19:56:32.461Z,3.46
2022-12-01T19:59:00.621Z,3.34
2022-12-01T20:01:29.000Z,3.36
2022-12-01T20:03:57.120Z,3.42
2022-12-01T20:06:25.802Z,3.39
2022-12-01T20:08:55.034Z,3.38
2022-12-01T20:11:24.503Z,3.34
2022-12-01T20:13:52.439Z,3.50
2022-12-01T20:16:21.320Z,3.41
2022-12-01T20:18:49.560Z,3.35
2022-12-01T20:21:21.920Z,3.34
2022-12-01T20:23:50.980Z,3.34
2022-12-01T20:26:26.172Z,3.48
2022-12-01T20:29:11.180Z,3.46
2022-12-01T20:31:39.684Z,3.38
2022-12-01T20:34:09.513Z,3.40
2022-12-01T20:36:37.540Z,3.46
2022-12-01T20:39:06.609Z,3.39
2022-12-01T20:41:38.100Z,3.53
2022-12-01T20:44:08.013Z,3.59
2022-12-01T20:46:39.632Z,3.56
2022-12-01T20:49:08.329Z,3.60
2022-12-01T20:51:36.420Z,3.55
2022-12-01T20:54:27.468Z,3.52
2022-12-01T20:56:54.332Z,3.54
2022-12-01T20:59:24.090Z,3.68
2022-12-01T21:01:52.096Z,3.67
2022-12-01T21:04:20.184Z,3.59
2022-12-01T21:06:49.927Z,3.57
2022-12-01T21:09:21.159Z,3.54
2022-12-01T21:12:28.458Z,3.53
2022-12-01T21:15:02.263Z,3.52
2022-12-01T21:17:35.922Z,3.60
2022-12-01T21:20:07.095Z,3.50
2022-12-01T21:22:35.199Z,3.37
2022-12-01T21:25:10.960Z,3.35
2022-12-01T21:27:38.962Z,3.33
2022-12-01T21:30:17.675Z,3.39
2022-12-01T21:32:46.732Z,3.52
2022-12-01T21:35:16.865Z,3.48
2022-12-01T21:37:44.683Z,3.23
2022-12-01T21:40:16.729Z,3.23
2022-12-01T21:42:44.713Z,3.20
2022-12-01T21:45:20.050Z,3.32
2022-12-01T21:47:48.258Z,3.24
2022-12-01T21:50:25.189Z,3.16
2022-12-01T21:52:59.288Z,3.13
2022-12-01T21:55:39.157Z,3.10
2022-12-01T21:58:19.830Z,3.23
2022-12-01T22:00:52.590Z,3.02
2022-12-01T22:06:31.735Z,3.01
2022-12-01T22:09:22.564Z,3.01
2022-12-01T22:11:53.257Z,3.11
2022-12-01T22:14:22.496Z,3.17
2022-12-01T22:16:53.874Z,3.04
2022-12-01T22:19:24.309Z,2.93
2022-12-01T22:21:53.904Z,2.84
2022-12-01T22:24:23.251Z,2.81
2022-12-01T22:26:53.037Z,2.76
2022-12-01T22:29:27.606Z,2.85
2022-12-01T22:32:07.369Z,2.73
2022-12-01T22:34:35.540Z,2.94
2022-12-01T22:37:03.260Z,2.93
2022-12-01T22:39:33.236Z,2.88
2022-12-01T22:42:01.791Z,2.85
2022-12-01T22:44:31.565Z,2.79
2022-12-01T22:47:01.969Z,2.71
2022-12-01T22:49:30.258Z,2.69
2022-12-01T22:52:02.722Z,2.87
2022-12-01T22:54:33.391Z,2.65
2022-12-01T22:57:09.179Z,2.72
2022-12-01T22:59:40.314Z,2.63
2022-12-01T23:02:20.756Z,2.52
2022-12-01T23:04:50.182Z,2.58
2022-12-01T23:07:26.744Z,2.67
2022-12-01T23:09:56.705Z,2.59
2022-12-01T23:12:28.998Z,2.62
2022-12-01T23:14:58.374Z,2.59
2022-12-01T23:17:28.442Z,2.70
2022-12-01T23:20:02.122Z,2.68
2022-12-01T23:22:30.112Z,2.73
2022-12-01T23:24:57.925Z,2.74
2022-12-01T23:27:25.633Z,2.82
2022-12-01T23:29:53.465Z,2.80
2022-12-01T23:32:30.889Z,2.69
2022-12-01T23:35:00.606Z,2.79
2022-12-01T23:37:32.627Z,2.78
2022-12-01T23:40:00.732Z,2.77
2022-12-01T23:42:28.502Z,2.70
2022-12-01T23:44:56.304Z,2.67
2022-12-01T23:47:25.845Z,2.71
2022-12-01T23:49:56.561Z,2.70
2022-12-01T23:52:30.689Z,2.67
2022-12-01T23:54:58.771Z,2.74
2022-12-01T23:57:26.651Z,2.73
2022-12-01T23:59:55.826Z,2.74
